sensor_id;sensor_type;location;lat;lon;timestamp;P1;durP1;ratioP1;P2;durP2;ratioP2
78555;SDS011;67851;51.354;7.744;2024-03-23T00:53:49;43.33;;;9.80;;
78555;SDS011;67851;51.354;7.744;2024-03-23T00:56:15;38.15;;;9.23;;
78555;SDS011;67851;51.354;7.744;2024-03-23T00:58:41;40.22;;;9.07;;
78555;SDS011;67851;51.354;7.744;2024-03-23T01:01:08;31.77;;;8.63;;
78555;SDS011;67851;51.354;7.744;2024-03-23T01:03:34;37.58;;;9.80;;
78555;SDS011;67851;51.354;7.744;2024-03-23T01:06:01;35.95;;;9.10;;
78555;SDS011;67851;51.354;7.744;2024-03-23T01:08:27;39.67;;;10.07;;
78555;SDS011;67851;51.354;7.744;2024-03-23T01:10:56;35.80;;;10.07;;
78555;SDS011;67851;51.354;7.744;2024-03-23T01:13:22;41.92;;;9.73;;
78555;SDS011;67851;51.354;7.744;2024-03-23T01:15:49;39.25;;;10.25;;
78555;SDS011;67851;51.354;7.744;2024-03-23T01:18:20;34.13;;;10.60;;
78555;SDS011;67851;51.354;7.744;2024-03-23T01:20:48;55.40;;;13.93;;
78555;SDS011;67851;51.354;7.744;2024-03-23T01:23:15;64.57;;;17.08;;
78555;SDS011;67851;51.354;7.744;2024-03-23T01:25:40;94.82;;;21.70;;
78555;SDS011;67851;51.354;7.744;2024-03-23T01:28:07;128.50;;;28.02;;
78555;SDS011;67851;51.354;7.744;2024-03-23T01:30:33;114.78;;;28.25;;
78555;SDS011;67851;51.354;7.744;2024-03-23T01:33:00;104.35;;;27.02;;
78555;SDS011;67851;51.354;7.744;2024-03-23T01:35:26;124.00;;;28.88;;
78555;SDS011;67851;51.354;7.744;2024-03-23T01:37:53;129.02;;;30.88;;
78555;SDS011;67851;51.354;7.744;2024-03-23T01:40:19;153.57;;;36.40;;
78555;SDS011;67851;51.354;7.744;2024-03-23T01:42:58;166.43;;;35.35;;
78555;SDS011;67851;51.354;7.744;2024-03-23T01:45:27;83.40;;;23.00;;
78555;SDS011;67851;51.354;7.744;2024-03-23T01:47:54;95.97;;;23.98;;
78555;SDS011;67851;51.354;7.744;2024-03-23T01:50:20;36.13;;;11.45;;
78555;SDS011;67851;51.354;7.744;2024-03-23T01:52:47;44.20;;;12.93;;
78555;SDS011;67851;51.354;7.744;2024-03-23T01:55:14;48.70;;;13.93;;
78555;SDS011;67851;51.354;7.744;2024-03-23T01:57:40;49.30;;;13.82;;
78555;SDS011;67851;51.354;7.744;2024-03-23T02:00:06;45.88;;;14.85;;
78555;SDS011;67851;51.354;7.744;2024-03-23T02:02:46;64.80;;;18.15;;
78555;SDS011;67851;51.354;7.744;2024-03-23T02:05:12;54.60;;;16.55;;
78555;SDS011;67851;51.354;7.744;2024-03-23T02:07:38;53.25;;;17.50;;
78555;SDS011;67851;51.354;7.744;2024-03-23T02:10:06;81.18;;;19.73;;
78555;SDS011;67851;51.354;7.744;2024-03-23T02:12:33;72.65;;;21.40;;
78555;SDS011;67851;51.354;7.744;2024-03-23T02:15:00;65.30;;;18.77;;
78555;SDS011;67851;51.354;7.744;2024-03-23T02:17:26;74.70;;;19.55;;
78555;SDS011;67851;51.354;7.744;2024-03-23T02:19:53;59.20;;;17.00;;
78555;SDS011;67851;51.354;7.744;2024-03-23T02:22:19;62.70;;;16.38;;
78555;SDS011;67851;51.354;7.744;2024-03-23T02:24:46;37.20;;;10.48;;
78555;SDS011;67851;51.354;7.744;2024-03-23T02:27:12;24.77;;;8.95;;
78555;SDS011;67851;51.354;7.744;2024-03-23T02:29:38;35.28;;;9.63;;
78555;SDS011;67851;51.354;7.744;2024-03-23T02:32:03;38.38;;;9.32;;
78555;SDS011;67851;51.354;7.744;2024-03-23T02:34:29;21.30;;;7.30;;
78555;SDS011;67851;51.354;7.744;2024-03-23T02:36:55;24.88;;;6.97;;
78555;SDS011;67851;51.354;7.744;2024-03-23T02:39:21;32.47;;;7.53;;
78555;SDS011;67851;51.354;7.744;2024-03-23T02:41:49;31.38;;;7.45;;
78555;SDS011;67851;51.354;7.744;2024-03-23T02:44:15;25.23;;;5.88;;
78555;SDS011;67851;51.354;7.744;2024-03-23T02:46:42;22.90;;;6.20;;
78555;SDS011;67851;51.354;7.744;2024-03-23T02:49:08;25.55;;;5.80;;
78555;SDS011;67851;51.354;7.744;2024-03-23T02:51:34;21.63;;;7.25;;
78555;SDS011;67851;51.354;7.744;2024-03-23T02:54:00;24.92;;;7.20;;
78555;SDS011;67851;51.354;7.744;2024-03-23T02:56:27;30.48;;;7.43;;
78555;SDS011;67851;51.354;7.744;2024-03-23T02:58:55;19.17;;;6.75;;
78555;SDS011;67851;51.354;7.744;2024-03-23T03:01:20;20.00;;;5.70;;
78555;SDS011;67851;51.354;7.744;2024-03-23T03:03:46;13.65;;;5.47;;
78555;SDS011;67851;51.354;7.744;2024-03-23T03:06:22;25.50;;;5.75;;
78555;SDS011;67851;51.354;7.744;2024-03-23T03:08:50;15.00;;;5.18;;
78555;SDS011;67851;51.354;7.744;2024-03-23T03:11:17;18.60;;;5.10;;
78555;SDS011;67851;51.354;7.744;2024-03-23T03:13:43;14.68;;;4.70;;
78555;SDS011;67851;51.354;7.744;2024-03-23T03:16:11;15.52;;;4.35;;
78555;SDS011;67851;51.354;7.744;2024-03-23T03:18:38;17.15;;;4.90;;
78555;SDS011;67851;51.354;7.744;2024-03-23T03:21:06;24.48;;;5.97;;
78555;SDS011;67851;51.354;7.744;2024-03-23T03:23:36;14.15;;;5.10;;
78555;SDS011;67851;51.354;7.744;2024-03-23T03:26:03;16.48;;;5.72;;
78555;SDS011;67851;51.354;7.744;2024-03-23T03:28:31;15.43;;;4.10;;
78555;SDS011;67851;51.354;7.744;2024-03-23T03:31:01;18.77;;;4.95;;
78555;SDS011;67851;51.354;7.744;2024-03-23T03:33:27;15.63;;;4.00;;
78555;SDS011;67851;51.354;7.744;2024-03-23T03:35:54;17.75;;;3.72;;
78555;SDS011;67851;51.354;7.744;2024-03-23T03:38:20;23.38;;;3.65;;
78555;SDS011;67851;51.354;7.744;2024-03-23T03:40:46;16.48;;;3.60;;
78555;SDS011;67851;51.354;7.744;2024-03-23T03:43:13;18.67;;;3.40;;
78555;SDS011;67851;51.354;7.744;2024-03-23T03:45:40;20.90;;;4.95;;
78555;SDS011;67851;51.354;7.744;2024-03-23T03:48:06;16.02;;;2.70;;
78555;SDS011;67851;51.354;7.744;2024-03-23T03:50:34;21.35;;;6.28;;
78555;SDS011;67851;51.354;7.744;2024-03-23T03:52:59;21.50;;;3.58;;
78555;SDS011;67851;51.354;7.744;2024-03-23T03:55:26;13.85;;;3.00;;
78555;SDS011;67851;51.354;7.744;2024-03-23T03:57:52;17.73;;;3.45;;
78555;SDS011;67851;51.354;7.744;2024-03-23T04:00:19;20.60;;;3.25;;
78555;SDS011;67851;51.354;7.744;2024-03-23T04:02:45;22.05;;;3.67;;
78555;SDS011;67851;51.354;7.744;2024-03-23T04:05:12;20.73;;;5.35;;
78555;SDS011;67851;51.354;7.744;2024-03-23T04:07:39;15.88;;;4.32;;
78555;SDS011;67851;51.354;7.744;2024-03-23T04:10:04;21.42;;;3.40;;
78555;SDS011;67851;51.354;7.744;2024-03-23T04:12:33;20.77;;;3.67;;
78555;SDS011;67851;51.354;7.744;2024-03-23T04:14:59;13.65;;;2.83;;
78555;SDS011;67851;51.354;7.744;2024-03-23T04:17:26;19.15;;;2.60;;
78555;SDS011;67851;51.354;7.744;2024-03-23T04:19:57;19.75;;;3.95;;
78555;SDS011;67851;51.354;7.744;2024-03-23T04:22:23;15.25;;;3.15;;
78555;SDS011;67851;51.354;7.744;2024-03-23T04:24:55;15.88;;;2.65;;
78555;SDS011;67851;51.354;7.744;2024-03-23T04:27:21;18.02;;;2.65;;
78555;SDS011;67851;51.354;7.744;2024-03-23T04:29:50;14.98;;;2.35;;
78555;SDS011;67851;51.354;7.744;2024-03-23T04:32:20;19.08;;;2.75;;
78555;SDS011;67851;51.354;7.744;2024-03-23T04:34:47;15.98;;;2.50;;
78555;SDS011;67851;51.354;7.744;2024-03-23T04:37:13;17.40;;;2.67;;
78555;SDS011;67851;51.354;7.744;2024-03-23T04:39:40;16.85;;;2.75;;
78555;SDS011;67851;51.354;7.744;2024-03-23T04:42:07;20.30;;;2.92;;
78555;SDS011;67851;51.354;7.744;2024-03-23T04:44:33;19.13;;;3.40;;
78555;SDS011;67851;51.354;7.744;2024-03-23T04:47:02;24.65;;;4.18;;
78555;SDS011;67851;51.354;7.744;2024-03-23T04:49:28;18.77;;;2.88;;
78555;SDS011;67851;51.354;7.744;2024-03-23T04:51:55;18.95;;;3.53;;
78555;SDS011;67851;51.354;7.744;2024-03-23T04:54:20;22.10;;;3.63;;
78555;SDS011;67851;51.354;7.744;2024-03-23T04:56:48;31.08;;;4.45;;
78555;SDS011;67851;51.354;7.744;2024-03-23T04:59:15;26.02;;;4.72;;
78555;SDS011;67851;51.354;7.744;2024-03-23T05:01:40;23.10;;;4.03;;
78555;SDS011;67851;51.354;7.744;2024-03-23T05:04:08;21.42;;;4.53;;
78555;SDS011;67851;51.354;7.744;2024-03-23T05:06:34;28.95;;;4.03;;
78555;SDS011;67851;51.354;7.744;2024-03-23T05:09:00;22.58;;;3.92;;
78555;SDS011;67851;51.354;7.744;2024-03-23T05:11:33;24.73;;;5.32;;
78555;SDS011;67851;51.354;7.744;2024-03-23T05:14:00;25.17;;;4.38;;
78555;SDS011;67851;51.354;7.744;2024-03-23T05:16:29;21.95;;;3.97;;
78555;SDS011;67851;51.354;7.744;2024-03-23T05:18:55;25.80;;;5.10;;
78555;SDS011;67851;51.354;7.744;2024-03-23T05:21:24;26.80;;;5.05;;
78555;SDS011;67851;51.354;7.744;2024-03-23T05:23:50;28.50;;;4.95;;
78555;SDS011;67851;51.354;7.744;2024-03-23T05:26:16;28.42;;;4.95;;
78555;SDS011;67851;51.354;7.744;2024-03-23T05:28:42;27.73;;;4.63;;
78555;SDS011;67851;51.354;7.744;2024-03-23T05:31:09;22.35;;;4.60;;
78555;SDS011;67851;51.354;7.744;2024-03-23T05:33:38;31.48;;;5.13;;
78555;SDS011;67851;51.354;7.744;2024-03-23T05:36:04;25.38;;;5.13;;
78555;SDS011;67851;51.354;7.744;2024-03-23T05:38:30;26.23;;;5.15;;
78555;SDS011;67851;51.354;7.744;2024-03-23T05:40:57;29.92;;;6.63;;
78555;SDS011;67851;51.354;7.744;2024-03-23T05:43:25;21.38;;;6.03;;
78555;SDS011;67851;51.354;7.744;2024-03-23T05:45:55;36.65;;;5.68;;
78555;SDS011;67851;51.354;7.744;2024-03-23T05:48:23;29.40;;;6.03;;
78555;SDS011;67851;51.354;7.744;2024-03-23T05:50:50;34.08;;;7.03;;
78555;SDS011;67851;51.354;7.744;2024-03-23T05:53:17;28.25;;;5.20;;
78555;SDS011;67851;51.354;7.744;2024-03-23T05:55:44;32.42;;;5.95;;
78555;SDS011;67851;51.354;7.744;2024-03-23T05:58:14;41.25;;;7.15;;
78555;SDS011;67851;51.354;7.744;2024-03-23T06:00:42;33.95;;;5.50;;
78555;SDS011;67851;51.354;7.744;2024-03-23T06:03:09;33.08;;;6.00;;
78555;SDS011;67851;51.354;7.744;2024-03-23T06:05:36;27.52;;;6.15;;
78555;SDS011;67851;51.354;7.744;2024-03-23T06:08:05;40.35;;;6.50;;
78555;SDS011;67851;51.354;7.744;2024-03-23T06:10:39;32.05;;;7.20;;
78555;SDS011;67851;51.354;7.744;2024-03-23T06:13:06;41.95;;;7.82;;
78555;SDS011;67851;51.354;7.744;2024-03-23T06:15:32;37.25;;;8.30;;
78555;SDS011;67851;51.354;7.744;2024-03-23T06:17:57;40.60;;;8.60;;
78555;SDS011;67851;51.354;7.744;2024-03-23T06:20:24;40.42;;;8.27;;
78555;SDS011;67851;51.354;7.744;2024-03-23T06:22:50;39.05;;;8.48;;
78555;SDS011;67851;51.354;7.744;2024-03-23T06:25:15;39.53;;;10.57;;
78555;SDS011;67851;51.354;7.744;2024-03-23T06:27:41;31.77;;;10.88;;
78555;SDS011;67851;51.354;7.744;2024-03-23T06:30:09;39.33;;;10.02;;
78555;SDS011;67851;51.354;7.744;2024-03-23T06:32:35;30.48;;;10.45;;
78555;SDS011;67851;51.354;7.744;2024-03-23T06:35:01;32.03;;;10.52;;
78555;SDS011;67851;51.354;7.744;2024-03-23T06:37:37;31.55;;;10.35;;
78555;SDS011;67851;51.354;7.744;2024-03-23T06:40:04;35.20;;;11.05;;
78555;SDS011;67851;51.354;7.744;2024-03-23T06:42:33;35.17;;;10.32;;
78555;SDS011;67851;51.354;7.744;2024-03-23T06:44:59;40.50;;;10.75;;
78555;SDS011;67851;51.354;7.744;2024-03-23T06:47:25;30.88;;;10.90;;
78555;SDS011;67851;51.354;7.744;2024-03-23T06:49:51;34.22;;;11.75;;
78555;SDS011;67851;51.354;7.744;2024-03-23T06:52:18;31.88;;;11.35;;
78555;SDS011;67851;51.354;7.744;2024-03-23T06:54:45;31.63;;;11.25;;
78555;SDS011;67851;51.354;7.744;2024-03-23T06:57:12;34.60;;;11.68;;
78555;SDS011;67851;51.354;7.744;2024-03-23T06:59:37;33.83;;;12.93;;
78555;SDS011;67851;51.354;7.744;2024-03-23T07:02:04;34.53;;;13.27;;
78555;SDS011;67851;51.354;7.744;2024-03-23T07:04:34;42.45;;;14.23;;
78555;SDS011;67851;51.354;7.744;2024-03-23T07:07:00;36.90;;;13.52;;
78555;SDS011;67851;51.354;7.744;2024-03-23T07:09:30;44.88;;;14.90;;
78555;SDS011;67851;51.354;7.744;2024-03-23T07:11:59;37.33;;;14.70;;
78555;SDS011;67851;51.354;7.744;2024-03-23T07:14:25;34.63;;;14.43;;
78555;SDS011;67851;51.354;7.744;2024-03-23T07:16:51;34.03;;;14.95;;
78555;SDS011;67851;51.354;7.744;2024-03-23T07:19:17;37.05;;;15.48;;
78555;SDS011;67851;51.354;7.744;2024-03-23T07:21:43;37.70;;;16.75;;
78555;SDS011;67851;51.354;7.744;2024-03-23T07:24:09;33.63;;;14.60;;
78555;SDS011;67851;51.354;7.744;2024-03-23T07:26:36;47.30;;;18.98;;
78555;SDS011;67851;51.354;7.744;2024-03-23T07:29:03;43.47;;;17.40;;
78555;SDS011;67851;51.354;7.744;2024-03-23T07:31:32;44.67;;;18.80;;
78555;SDS011;67851;51.354;7.744;2024-03-23T07:33:58;40.25;;;19.08;;
78555;SDS011;67851;51.354;7.744;2024-03-23T07:36:27;58.10;;;20.13;;
78555;SDS011;67851;51.354;7.744;2024-03-23T07:38:53;44.35;;;18.23;;
78555;SDS011;67851;51.354;7.744;2024-03-23T07:41:19;59.08;;;20.30;;
78555;SDS011;67851;51.354;7.744;2024-03-23T07:43:46;39.22;;;15.48;;
78555;SDS011;67851;51.354;7.744;2024-03-23T07:46:14;38.90;;;16.05;;
78555;SDS011;67851;51.354;7.744;2024-03-23T07:48:40;52.15;;;19.45;;
78555;SDS011;67851;51.354;7.744;2024-03-23T07:51:11;51.47;;;19.10;;
78555;SDS011;67851;51.354;7.744;2024-03-23T07:53:43;55.13;;;20.23;;
78555;SDS011;67851;51.354;7.744;2024-03-23T07:56:09;52.88;;;17.85;;
78555;SDS011;67851;51.354;7.744;2024-03-23T07:58:38;55.10;;;19.60;;
78555;SDS011;67851;51.354;7.744;2024-03-23T08:01:08;51.38;;;18.27;;
78555;SDS011;67851;51.354;7.744;2024-03-23T08:03:37;50.53;;;17.90;;
78555;SDS011;67851;51.354;7.744;2024-03-23T08:06:07;38.47;;;17.88;;
78555;SDS011;67851;51.354;7.744;2024-03-23T08:08:43;48.72;;;19.08;;
78555;SDS011;67851;51.354;7.744;2024-03-23T08:11:13;38.67;;;16.48;;
78555;SDS011;67851;51.354;7.744;2024-03-23T08:13:41;35.55;;;15.05;;
78555;SDS011;67851;51.354;7.744;2024-03-23T08:16:07;33.63;;;16.25;;
78555;SDS011;67851;51.354;7.744;2024-03-23T08:18:34;41.35;;;16.15;;
78555;SDS011;67851;51.354;7.744;2024-03-23T08:21:00;33.75;;;13.27;;
78555;SDS011;67851;51.354;7.744;2024-03-23T08:23:28;34.97;;;13.55;;
78555;SDS011;67851;51.354;7.744;2024-03-23T08:25:58;29.23;;;12.52;;
78555;SDS011;67851;51.354;7.744;2024-03-23T08:28:25;27.58;;;12.77;;
78555;SDS011;67851;51.354;7.744;2024-03-23T08:30:52;29.98;;;11.18;;
78555;SDS011;67851;51.354;7.744;2024-03-23T08:33:18;25.13;;;9.98;;
78555;SDS011;67851;51.354;7.744;2024-03-23T08:36:00;20.63;;;8.80;;
78555;SDS011;67851;51.354;7.744;2024-03-23T08:38:41;23.95;;;9.20;;
78555;SDS011;67851;51.354;7.744;2024-03-23T08:41:10;23.90;;;8.43;;
78555;SDS011;67851;51.354;7.744;2024-03-23T08:43:37;20.20;;;7.30;;
78555;SDS011;67851;51.354;7.744;2024-03-23T08:46:08;22.00;;;6.93;;
78555;SDS011;67851;51.354;7.744;2024-03-23T08:48:35;21.00;;;7.18;;
78555;SDS011;67851;51.354;7.744;2024-03-23T08:51:05;27.25;;;7.38;;
78555;SDS011;67851;51.354;7.744;2024-03-23T08:53:31;22.83;;;6.63;;
78555;SDS011;67851;51.354;7.744;2024-03-23T08:55:59;20.23;;;6.68;;
78555;SDS011;67851;51.354;7.744;2024-03-23T08:58:27;25.00;;;6.25;;
78555;SDS011;67851;51.354;7.744;2024-03-23T09:00:55;18.15;;;5.85;;
78555;SDS011;67851;51.354;7.744;2024-03-23T09:03:24;29.55;;;6.72;;
78555;SDS011;67851;51.354;7.744;2024-03-23T09:05:52;26.38;;;5.40;;
78555;SDS011;67851;51.354;7.744;2024-03-23T09:08:20;28.52;;;5.68;;
78555;SDS011;67851;51.354;7.744;2024-03-23T09:10:46;25.20;;;5.85;;
78555;SDS011;67851;51.354;7.744;2024-03-23T09:13:13;17.20;;;5.22;;
78555;SDS011;67851;51.354;7.744;2024-03-23T09:15:45;21.00;;;5.80;;
78555;SDS011;67851;51.354;7.744;2024-03-23T09:18:17;17.20;;;5.15;;
78555;SDS011;67851;51.354;7.744;2024-03-23T09:20:43;19.92;;;4.28;;
78555;SDS011;67851;51.354;7.744;2024-03-23T09:23:09;14.15;;;3.95;;
78555;SDS011;67851;51.354;7.744;2024-03-23T09:25:38;13.18;;;4.22;;
78555;SDS011;67851;51.354;7.744;2024-03-23T09:28:07;16.33;;;4.18;;
78555;SDS011;67851;51.354;7.744;2024-03-23T09:30:36;10.80;;;3.60;;
78555;SDS011;67851;51.354;7.744;2024-03-23T09:33:08;15.65;;;3.55;;
78555;SDS011;67851;51.354;7.744;2024-03-23T09:35:41;10.90;;;3.30;;
78555;SDS011;67851;51.354;7.744;2024-03-23T09:38:15;16.13;;;3.80;;
78555;SDS011;67851;51.354;7.744;2024-03-23T09:40:42;17.77;;;4.50;;
78555;SDS011;67851;51.354;7.744;2024-03-23T09:43:11;15.70;;;3.88;;
78555;SDS011;67851;51.354;7.744;2024-03-23T09:45:38;14.63;;;3.70;;
78555;SDS011;67851;51.354;7.744;2024-03-23T09:48:09;7.18;;;1.60;;
78555;SDS011;67851;51.354;7.744;2024-03-23T09:50:38;8.13;;;2.28;;
78555;SDS011;67851;51.354;7.744;2024-03-23T09:55:37;8.02;;;2.20;;
78555;SDS011;67851;51.354;7.744;2024-03-23T09:58:06;9.35;;;2.03;;
78555;SDS011;67851;51.354;7.744;2024-03-23T10:00:32;7.72;;;2.30;;
78555;SDS011;67851;51.354;7.744;2024-03-23T10:02:59;7.43;;;1.90;;
78555;SDS011;67851;51.354;7.744;2024-03-23T10:05:28;6.35;;;1.42;;
78555;SDS011;67851;51.354;7.744;2024-03-23T10:07:54;8.13;;;1.17;;
78555;SDS011;67851;51.354;7.744;2024-03-23T10:10:20;5.28;;;2.10;;
78555;SDS011;67851;51.354;7.744;2024-03-23T10:12:50;2.28;;;1.27;;
78555;SDS011;67851;51.354;7.744;2024-03-23T10:15:22;8.15;;;2.17;;
78555;SDS011;67851;51.354;7.744;2024-03-23T10:17:50;10.32;;;2.85;;
78555;SDS011;67851;51.354;7.744;2024-03-23T10:20:21;10.88;;;2.58;;
78555;SDS011;67851;51.354;7.744;2024-03-23T10:22:49;16.13;;;4.32;;
78555;SDS011;67851;51.354;7.744;2024-03-23T10:25:17;10.85;;;4.07;;
78555;SDS011;67851;51.354;7.744;2024-03-23T10:27:44;9.40;;;3.95;;
78555;SDS011;67851;51.354;7.744;2024-03-23T10:30:24;13.68;;;4.80;;
78555;SDS011;67851;51.354;7.744;2024-03-23T10:33:11;10.20;;;3.95;;
78555;SDS011;67851;51.354;7.744;2024-03-23T10:35:37;16.63;;;4.13;;
78555;SDS011;67851;51.354;7.744;2024-03-23T10:38:07;15.25;;;3.97;;
78555;SDS011;67851;51.354;7.744;2024-03-23T10:40:36;12.43;;;3.58;;
78555;SDS011;67851;51.354;7.744;2024-03-23T10:43:05;9.90;;;3.20;;
78555;SDS011;67851;51.354;7.744;2024-03-23T10:45:31;13.45;;;3.90;;
78555;SDS011;67851;51.354;7.744;2024-03-23T10:47:58;15.05;;;3.30;;
78555;SDS011;67851;51.354;7.744;2024-03-23T10:50:23;11.52;;;2.88;;
78555;SDS011;67851;51.354;7.744;2024-03-23T10:52:49;13.15;;;3.92;;
78555;SDS011;67851;51.354;7.744;2024-03-23T10:55:18;11.85;;;2.97;;
78555;SDS011;67851;51.354;7.744;2024-03-23T10:57:50;9.07;;;2.63;;
78555;SDS011;67851;51.354;7.744;2024-03-23T11:00:18;10.13;;;2.60;;
78555;SDS011;67851;51.354;7.744;2024-03-23T11:02:43;10.23;;;2.67;;
78555;SDS011;67851;51.354;7.744;2024-03-23T11:05:27;9.77;;;2.88;;
78555;SDS011;67851;51.354;7.744;2024-03-23T11:07:54;14.25;;;2.75;;
78555;SDS011;67851;51.354;7.744;2024-03-23T11:10:29;6.57;;;2.42;;
78555;SDS011;67851;51.354;7.744;2024-03-23T11:12:56;9.93;;;2.78;;
78555;SDS011;67851;51.354;7.744;2024-03-23T11:15:22;11.35;;;2.70;;
78555;SDS011;67851;51.354;7.744;2024-03-23T11:18:04;8.75;;;2.80;;
78555;SDS011;67851;51.354;7.744;2024-03-23T11:20:31;7.53;;;2.05;;
78555;SDS011;67851;51.354;7.744;2024-03-23T11:23:00;15.05;;;2.30;;
78555;SDS011;67851;51.354;7.744;2024-03-23T11:25:28;12.43;;;2.90;;
78555;SDS011;67851;51.354;7.744;2024-03-23T11:28:08;8.45;;;2.20;;
78555;SDS011;67851;51.354;7.744;2024-03-23T11:30:35;11.50;;;2.50;;
78555;SDS011;67851;51.354;7.744;2024-03-23T11:33:03;7.90;;;2.30;;
78555;SDS011;67851;51.354;7.744;2024-03-23T11:35:33;7.60;;;2.60;;
78555;SDS011;67851;51.354;7.744;2024-03-23T11:38:10;8.18;;;2.13;;
78555;SDS011;67851;51.354;7.744;2024-03-23T11:40:44;6.10;;;1.58;;
78555;SDS011;67851;51.354;7.744;2024-03-23T11:43:12;7.22;;;1.70;;
78555;SDS011;67851;51.354;7.744;2024-03-23T11:48:16;5.00;;;1.80;;
78555;SDS011;67851;51.354;7.744;2024-03-23T11:50:43;5.32;;;1.30;;
78555;SDS011;67851;51.354;7.744;2024-03-23T11:53:12;3.58;;;1.27;;
78555;SDS011;67851;51.354;7.744;2024-03-23T11:58:07;6.93;;;1.70;;
78555;SDS011;67851;51.354;7.744;2024-03-23T12:00:34;4.68;;;1.33;;
78555;SDS011;67851;51.354;7.744;2024-03-23T12:03:01;1.38;;;1.00;;
78555;SDS011;67851;51.354;7.744;2024-03-23T12:05:27;4.45;;;1.23;;
78555;SDS011;67851;51.354;7.744;2024-03-23T12:07:54;6.03;;;1.25;;
78555;SDS011;67851;51.354;7.744;2024-03-23T12:10:19;4.65;;;1.67;;
78555;SDS011;67851;51.354;7.744;2024-03-23T12:12:45;3.85;;;1.58;;
78555;SDS011;67851;51.354;7.744;2024-03-23T12:15:11;4.97;;;1.42;;
78555;SDS011;67851;51.354;7.744;2024-03-23T12:17:38;6.38;;;1.63;;
78555;SDS011;67851;51.354;7.744;2024-03-23T12:20:04;6.53;;;1.60;;
78555;SDS011;67851;51.354;7.744;2024-03-23T12:22:31;6.35;;;1.30;;
78555;SDS011;67851;51.354;7.744;2024-03-23T12:24:57;4.90;;;1.25;;
78555;SDS011;67851;51.354;7.744;2024-03-23T12:27:23;5.45;;;1.60;;
78555;SDS011;67851;51.354;7.744;2024-03-23T12:29:48;4.05;;;1.27;;
78555;SDS011;67851;51.354;7.744;2024-03-23T12:32:14;4.78;;;1.25;;
78555;SDS011;67851;51.354;7.744;2024-03-23T12:34:41;4.22;;;1.30;;
78555;SDS011;67851;51.354;7.744;2024-03-23T12:37:09;5.68;;;1.38;;
78555;SDS011;67851;51.354;7.744;2024-03-23T12:39:34;6.20;;;1.98;;
78555;SDS011;67851;51.354;7.744;2024-03-23T12:42:01;5.68;;;1.50;;
78555;SDS011;67851;51.354;7.744;2024-03-23T12:44:30;8.98;;;1.73;;
78555;SDS011;67851;51.354;7.744;2024-03-23T12:46:56;5.63;;;1.40;;
78555;SDS011;67851;51.354;7.744;2024-03-23T12:49:26;6.38;;;1.40;;
78555;SDS011;67851;51.354;7.744;2024-03-23T12:51:55;5.57;;;1.33;;
78555;SDS011;67851;51.354;7.744;2024-03-23T12:54:22;5.45;;;1.55;;
78555;SDS011;67851;51.354;7.744;2024-03-23T12:56:49;4.97;;;1.75;;
78555;SDS011;67851;51.354;7.744;2024-03-23T12:59:15;8.30;;;1.88;;
78555;SDS011;67851;51.354;7.744;2024-03-23T13:01:42;4.18;;;1.30;;
78555;SDS011;67851;51.354;7.744;2024-03-23T13:04:10;6.32;;;1.60;;
78555;SDS011;67851;51.354;7.744;2024-03-23T13:06:36;5.07;;;1.27;;
78555;SDS011;67851;51.354;7.744;2024-03-23T13:09:02;2.95;;;0.70;;
78555;SDS011;67851;51.354;7.744;2024-03-23T13:11:30;2.00;;;0.70;;
78555;SDS011;67851;51.354;7.744;2024-03-23T13:13:56;1.33;;;0.50;;
78555;SDS011;67851;51.354;7.744;2024-03-23T13:16:24;1.80;;;0.52;;
78555;SDS011;67851;51.354;7.744;2024-03-23T13:18:50;3.55;;;0.70;;
78555;SDS011;67851;51.354;7.744;2024-03-23T13:21:19;5.75;;;0.98;;
78555;SDS011;67851;51.354;7.744;2024-03-23T13:23:48;4.00;;;0.98;;
78555;SDS011;67851;51.354;7.744;2024-03-23T13:26:15;3.20;;;0.93;;
78555;SDS011;67851;51.354;7.744;2024-03-23T13:28:43;6.43;;;1.45;;
78555;SDS011;67851;51.354;7.744;2024-03-23T13:31:10;3.80;;;1.00;;
78555;SDS011;67851;51.354;7.744;2024-03-23T13:33:36;5.53;;;1.25;;
78555;SDS011;67851;51.354;7.744;2024-03-23T13:36:03;2.40;;;1.17;;
78555;SDS011;67851;51.354;7.744;2024-03-23T13:38:30;4.53;;;0.98;;
78555;SDS011;67851;51.354;7.744;2024-03-23T13:40:57;5.03;;;1.52;;
78555;SDS011;67851;51.354;7.744;2024-03-23T13:43:24;5.75;;;1.10;;
78555;SDS011;67851;51.354;7.744;2024-03-23T13:45:58;6.15;;;1.33;;
78555;SDS011;67851;51.354;7.744;2024-03-23T13:48:27;5.90;;;1.60;;
78555;SDS011;67851;51.354;7.744;2024-03-23T13:51:01;5.57;;;1.35;;
78555;SDS011;67851;51.354;7.744;2024-03-23T13:53:29;3.90;;;1.23;;
78555;SDS011;67851;51.354;7.744;2024-03-23T13:55:55;3.33;;;0.95;;
78555;SDS011;67851;51.354;7.744;2024-03-23T13:58:28;5.40;;;1.17;;
78555;SDS011;67851;51.354;7.744;2024-03-23T14:00:56;3.80;;;1.10;;
78555;SDS011;67851;51.354;7.744;2024-03-23T14:03:22;7.70;;;3.10;;
78555;SDS011;67851;51.354;7.744;2024-03-23T14:05:48;4.60;;;1.17;;
78555;SDS011;67851;51.354;7.744;2024-03-23T14:08:14;1.85;;;1.38;;
78555;SDS011;67851;51.354;7.744;2024-03-23T14:10:41;2.53;;;1.10;;
78555;SDS011;67851;51.354;7.744;2024-03-23T14:13:08;8.10;;;2.38;;
78555;SDS011;67851;51.354;7.744;2024-03-23T14:15:34;3.38;;;1.05;;
78555;SDS011;67851;51.354;7.744;2024-03-23T14:18:02;4.82;;;1.30;;
78555;SDS011;67851;51.354;7.744;2024-03-23T14:20:28;6.95;;;1.30;;
78555;SDS011;67851;51.354;7.744;2024-03-23T14:22:55;3.30;;;1.10;;
78555;SDS011;67851;51.354;7.744;2024-03-23T14:25:22;5.60;;;1.58;;
78555;SDS011;67851;51.354;7.744;2024-03-23T14:27:52;3.72;;;1.20;;
78555;SDS011;67851;51.354;7.744;2024-03-23T14:30:19;6.78;;;1.13;;
78555;SDS011;67851;51.354;7.744;2024-03-23T14:32:45;6.05;;;1.17;;
78555;SDS011;67851;51.354;7.744;2024-03-23T14:35:11;5.13;;;1.23;;
78555;SDS011;67851;51.354;7.744;2024-03-23T14:37:42;6.35;;;1.60;;
78555;SDS011;67851;51.354;7.744;2024-03-23T14:40:08;4.80;;;1.10;;
78555;SDS011;67851;51.354;7.744;2024-03-23T14:42:36;7.30;;;1.90;;
78555;SDS011;67851;51.354;7.744;2024-03-23T14:45:02;2.33;;;1.10;;
78555;SDS011;67851;51.354;7.744;2024-03-23T14:47:29;4.05;;;1.10;;
78555;SDS011;67851;51.354;7.744;2024-03-23T14:49:54;7.40;;;1.20;;
78555;SDS011;67851;51.354;7.744;2024-03-23T14:52:20;3.05;;;1.00;;
78555;SDS011;67851;51.354;7.744;2024-03-23T14:54:46;4.90;;;1.10;;
78555;SDS011;67851;51.354;7.744;2024-03-23T14:57:14;3.33;;;1.00;;
78555;SDS011;67851;51.354;7.744;2024-03-23T14:59:40;3.03;;;0.85;;
78555;SDS011;67851;51.354;7.744;2024-03-23T15:02:06;2.17;;;0.80;;
78555;SDS011;67851;51.354;7.744;2024-03-23T15:04:33;4.60;;;1.13;;
78555;SDS011;67851;51.354;7.744;2024-03-23T15:06:59;3.80;;;0.75;;
78555;SDS011;67851;51.354;7.744;2024-03-23T15:09:25;6.05;;;1.10;;
78555;SDS011;67851;51.354;7.744;2024-03-23T15:11:51;5.53;;;1.23;;
78555;SDS011;67851;51.354;7.744;2024-03-23T15:14:21;3.75;;;1.13;;
78555;SDS011;67851;51.354;7.744;2024-03-23T15:16:47;6.35;;;1.35;;
78555;SDS011;67851;51.354;7.744;2024-03-23T15:19:14;4.15;;;1.05;;
78555;SDS011;67851;51.354;7.744;2024-03-23T15:21:44;3.17;;;1.08;;
78555;SDS011;67851;51.354;7.744;2024-03-23T15:24:10;4.18;;;1.45;;
78555;SDS011;67851;51.354;7.744;2024-03-23T15:26:37;3.20;;;0.90;;
78555;SDS011;67851;51.354;7.744;2024-03-23T15:29:03;8.27;;;1.70;;
78555;SDS011;67851;51.354;7.744;2024-03-23T15:31:36;8.88;;;1.40;;
78555;SDS011;67851;51.354;7.744;2024-03-23T15:34:04;3.38;;;1.00;;
78555;SDS011;67851;51.354;7.744;2024-03-23T15:36:30;4.82;;;1.42;;
78555;SDS011;67851;51.354;7.744;2024-03-23T15:38:56;4.88;;;1.17;;